sensor_id;sensor_type;location;lat;lon;timestamp;pressure;altitude;pressure_sealevel;temperature;humidity
3178;BME280;38141;42.666;23.344;2023-03-11T00:01:57;92826.72;;;10.87;100.00
3178;BME280;38141;42.666;23.344;2023-03-11T00:04:25;92848.47;;;10.83;100.00
3178;BME280;38141;42.666;23.344;2023-03-11T00:06:52;92902.47;;;11.15;100.00
3178;BME280;38141;42.666;23.344;2023-03-11T00:09:18;92906.69;;;11.17;100.00
3178;BME280;38141;42.666;23.344;2023-03-11T00:11:45;92901.19;;;11.20;100.00
3178;BME280;38141;42.666;23.344;2023-03-11T00:14:12;92843.72;;;10.87;100.00
3178;BME280;38141;42.666;23.344;2023-03-11T00:16:39;92778.16;;;10.42;100.00
3178;BME280;38141;42.666;23.344;2023-03-11T00:19:06;92836.84;;;10.41;100.00
3178;BME280;38141;42.666;23.344;2023-03-11T00:21:34;92786.03;;;10.36;100.00
3178;BME280;38141;42.666;23.344;2023-03-11T00:24:01;92822.75;;;10.91;100.00
3178;BME280;38141;42.666;23.344;2023-03-11T00:26:28;92793.66;;;10.54;100.00
3178;BME280;38141;42.666;23.344;2023-03-11T00:28:54;92876.59;;;11.14;100.00
3178;BME280;38141;42.666;23.344;2023-03-11T00:31:21;92883.94;;;11.14;100.00
3178;BME280;38141;42.666;23.344;2023-03-11T00:33:51;92875.94;;;11.10;100.00
3178;BME280;38141;42.666;23.344;2023-03-11T00:36:22;92851.66;;;10.94;100.00
3178;BME280;38141;42.666;23.344;2023-03-11T00:38:50;92827.34;;;11.07;100.00
3178;BME280;38141;42.666;23.344;2023-03-11T00:41:17;92869.16;;;11.44;100.00
3178;BME280;38141;42.666;23.344;2023-03-11T00:43:44;92874.78;;;11.49;100.00
3178;BME280;38141;42.666;23.344;2023-03-11T00:46:11;92859.28;;;11.25;100.00
3178;BME280;38141;42.666;23.344;2023-03-11T00:48:37;92825.34;;;10.95;100.00
3178;BME280;38141;42.666;23.344;2023-03-11T00:51:06;92866.41;;;11.19;100.00
3178;BME280;38141;42.666;23.344;2023-03-11T00:53:33;92851.78;;;11.03;100.00
3178;BME280;38141;42.666;23.344;2023-03-11T00:56:06;92837.25;;;10.85;100.00
3178;BME280;38141;42.666;23.344;2023-03-11T00:58:33;92835.88;;;11.05;100.00
3178;BME280;38141;42.666;23.344;2023-03-11T01:01:00;92835.75;;;10.96;100.00
3178;BME280;38141;42.666;23.344;2023-03-11T01:03:27;92791.94;;;10.60;100.00
3178;BME280;38141;42.666;23.344;2023-03-11T01:05:54;92845.34;;;10.85;100.00
3178;BME280;38141;42.666;23.344;2023-03-11T01:08:20;92829.25;;;10.94;100.00
3178;BME280;38141;42.666;23.344;2023-03-11T01:10:47;92821.69;;;11.01;100.00
3178;BME280;38141;42.666;23.344;2023-03-11T01:13:15;92825.03;;;10.93;100.00
3178;BME280;38141;42.666;23.344;2023-03-11T01:15:42;92820.03;;;10.91;100.00
3178;BME280;38141;42.666;23.344;2023-03-11T01:18:09;92809.03;;;10.98;100.00
3178;BME280;38141;42.666;23.344;2023-03-11T01:20:37;92772.28;;;10.72;100.00
3178;BME280;38141;42.666;23.344;2023-03-11T01:23:04;92794.16;;;10.78;100.00
3178;BME280;38141;42.666;23.344;2023-03-11T01:25:31;92800.78;;;10.89;100.00
3178;BME280;38141;42.666;23.344;2023-03-11T01:27:58;92771.56;;;10.84;100.00
3178;BME280;38141;42.666;23.344;2023-03-11T01:30:27;92778.72;;;10.49;100.00
3178;BME280;38141;42.666;23.344;2023-03-11T01:32:56;92777.50;;;10.38;100.00
3178;BME280;38141;42.666;23.344;2023-03-11T01:35:26;92780.81;;;10.29;100.00
3178;BME280;38141;42.666;23.344;2023-03-11T01:37:53;92764.03;;;10.05;100.00
3178;BME280;38141;42.666;23.344;2023-03-11T01:40:24;92770.53;;;10.24;100.00
3178;BME280;38141;42.666;23.344;2023-03-11T01:42:51;92765.38;;;10.30;100.00
3178;BME280;38141;42.666;23.344;2023-03-11T01:45:41;92753.06;;;10.41;100.00
3178;BME280;38141;42.666;23.344;2023-03-11T01:48:28;92739.22;;;10.27;100.00
3178;BME280;38141;42.666;23.344;2023-03-11T01:50:55;92740.81;;;10.24;100.00
3178;BME280;38141;42.666;23.344;2023-03-11T01:53:23;92703.97;;;10.01;100.00
3178;BME280;38141;42.666;23.344;2023-03-11T01:55:50;92738.47;;;10.39;100.00
3178;BME280;38141;42.666;23.344;2023-03-11T01:58:21;92766.72;;;10.50;100.00
3178;BME280;38141;42.666;23.344;2023-03-11T02:00:51;92785.31;;;10.48;100.00
3178;BME280;38141;42.666;23.344;2023-03-11T02:03:23;92756.53;;;10.42;100.00
3178;BME280;38141;42.666;23.344;2023-03-11T02:05:51;92764.63;;;10.13;100.00
3178;BME280;38141;42.666;23.344;2023-03-11T02:08:19;92790.88;;;10.29;100.00
3178;BME280;38141;42.666;23.344;2023-03-11T02:10:46;92791.34;;;10.40;100.00
3178;BME280;38141;42.666;23.344;2023-03-11T02:13:15;92793.16;;;10.30;100.00
3178;BME280;38141;42.666;23.344;2023-03-11T02:15:43;92792.44;;;10.42;100.00
3178;BME280;38141;42.666;23.344;2023-03-11T02:18:12;92781.63;;;10.42;100.00
3178;BME280;38141;42.666;23.344;2023-03-11T02:20:44;92805.44;;;10.47;100.00
3178;BME280;38141;42.666;23.344;2023-03-11T02:23:13;92813.28;;;10.70;100.00
3178;BME280;38141;42.666;23.344;2023-03-11T02:25:47;92812.88;;;10.43;100.00
3178;BME280;38141;42.666;23.344;2023-03-11T02:28:18;92800.06;;;10.60;100.00
3178;BME280;38141;42.666;23.344;2023-03-11T02:30:47;92815.13;;;10.45;100.00
3178;BME280;38141;42.666;23.344;2023-03-11T02:33:14;92820.03;;;10.50;100.00
3178;BME280;38141;42.666;23.344;2023-03-11T02:35:42;92820.38;;;10.52;100.00
3178;BME280;38141;42.666;23.344;2023-03-11T02:38:09;92808.59;;;10.58;100.00
3178;BME280;38141;42.666;23.344;2023-03-11T02:40:49;92782.88;;;10.25;100.00
3178;BME280;38141;42.666;23.344;2023-03-11T02:43:23;92796.81;;;10.52;100.00
3178;BME280;38141;42.666;23.344;2023-03-11T02:45:50;92809.22;;;10.50;100.00
3178;BME280;38141;42.666;23.344;2023-03-11T02:48:17;92805.44;;;10.47;100.00
3178;BME280;38141;42.666;23.344;2023-03-11T02:50:45;92817.38;;;10.34;100.00
3178;BME280;38141;42.666;23.344;2023-03-11T02:53:12;92829.50;;;10.42;100.00
3178;BME280;38141;42.666;23.344;2023-03-11T02:55:39;92829.84;;;10.44;100.00
3178;BME280;38141;42.666;23.344;2023-03-11T02:58:06;92818.31;;;10.27;100.00
3178;BME280;38141;42.666;23.344;2023-03-11T03:00:34;92803.75;;;9.92;100.00
3178;BME280;38141;42.666;23.344;2023-03-11T03:03:01;92826.19;;;10.05;100.00
3178;BME280;38141;42.666;23.344;2023-03-11T03:05:28;92823.75;;;9.78;100.00
3178;BME280;38141;42.666;23.344;2023-03-11T03:07:55;92818.41;;;9.91;100.00
3178;BME280;38141;42.666;23.344;2023-03-11T03:10:23;92753.91;;;9.48;100.00
3178;BME280;38141;42.666;23.344;2023-03-11T03:12:49;92741.19;;;9.49;100.00
3178;BME280;38141;42.666;23.344;2023-03-11T03:15:16;92810.25;;;9.95;100.00
3178;BME280;38141;42.666;23.344;2023-03-11T03:17:45;92756.88;;;9.54;100.00
3178;BME280;38141;42.666;23.344;2023-03-11T03:20:12;92757.28;;;9.68;100.00
3178;BME280;38141;42.666;23.344;2023-03-11T03:22:40;92761.22;;;9.80;100.00
3178;BME280;38141;42.666;23.344;2023-03-11T03:25:08;92760.22;;;9.74;100.00
3178;BME280;38141;42.666;23.344;2023-03-11T03:27:35;92837.50;;;10.16;100.00
3178;BME280;38141;42.666;23.344;2023-03-11T03:30:03;92828.22;;;10.17;100.00
3178;BME280;38141;42.666;23.344;2023-03-11T03:32:30;92848.31;;;10.16;100.00
3178;BME280;38141;42.666;23.344;2023-03-11T03:34:59;92809.47;;;10.10;100.00
3178;BME280;38141;42.666;23.344;2023-03-11T03:37:27;92815.63;;;10.11;100.00
3178;BME280;38141;42.666;23.344;2023-03-11T03:39:54;92827.09;;;10.15;100.00
3178;BME280;38141;42.666;23.344;2023-03-11T03:42:21;92780.28;;;9.89;100.00
3178;BME280;38141;42.666;23.344;2023-03-11T03:44:49;92828.53;;;10.36;100.00
3178;BME280;38141;42.666;23.344;2023-03-11T03:47:16;92820.50;;;10.32;100.00
3178;BME280;38141;42.666;23.344;2023-03-11T03:49:43;92791.13;;;10.18;100.00
3178;BME280;38141;42.666;23.344;2023-03-11T03:52:12;92766.50;;;10.16;100.00
3178;BME280;38141;42.666;23.344;2023-03-11T03:54:39;92789.53;;;10.20;100.00
3178;BME280;38141;42.666;23.344;2023-03-11T03:57:06;92819.50;;;10.55;100.00
3178;BME280;38141;42.666;23.344;2023-03-11T03:59:32;92798.63;;;10.55;100.00
3178;BME280;38141;42.666;23.344;2023-03-11T04:01:59;92770.34;;;10.15;100.00
3178;BME280;38141;42.666;23.344;2023-03-11T04:04:26;92798.81;;;10.36;100.00
3178;BME280;38141;42.666;23.344;2023-03-11T04:06:53;92801.06;;;10.37;100.00
3178;BME280;38141;42.666;23.344;2023-03-11T04:09:21;92805.81;;;10.62;100.00
3178;BME280;38141;42.666;23.344;2023-03-11T04:11:48;92804.03;;;10.55;100.00
3178;BME280;38141;42.666;23.344;2023-03-11T04:14:14;92795.63;;;10.53;100.00
3178;BME280;38141;42.666;23.344;2023-03-11T04:16:41;92815.53;;;10.72;100.00
3178;BME280;38141;42.666;23.344;2023-03-11T04:19:08;92813.22;;;10.99;100.00
3178;BME280;38141;42.666;23.344;2023-03-11T04:21:35;92795.78;;;10.75;100.00
3178;BME280;38141;42.666;23.344;2023-03-11T04:24:02;92805.84;;;10.87;100.00
3178;BME280;38141;42.666;23.344;2023-03-11T04:26:30;92812.69;;;10.92;100.00
3178;BME280;38141;42.666;23.344;2023-03-11T04:28:57;92811.50;;;10.93;100.00
3178;BME280;38141;42.666;23.344;2023-03-11T04:31:24;92812.03;;;11.00;100.00
3178;BME280;38141;42.666;23.344;2023-03-11T04:33:50;92816.63;;;11.03;100.00
3178;BME280;38141;42.666;23.344;2023-03-11T04:36:17;92809.34;;;11.13;100.00
3178;BME280;38141;42.666;23.344;2023-03-11T04:38:44;92816.22;;;11.30;100.00
3178;BME280;38141;42.666;23.344;2023-03-11T04:41:11;92812.41;;;11.40;100.00
3178;BME280;38141;42.666;23.344;2023-03-11T04:43:39;92820.22;;;11.38;100.00
3178;BME280;38141;42.666;23.344;2023-03-11T04:46:06;92820.09;;;11.29;100.00
3178;BME280;38141;42.666;23.344;2023-03-11T04:48:32;92802.34;;;11.28;100.00
3178;BME280;38141;42.666;23.344;2023-03-11T04:50:59;92814.78;;;11.38;100.00
3178;BME280;38141;42.666;23.344;2023-03-11T04:53:26;92811.97;;;11.42;100.00
3178;BME280;38141;42.666;23.344;2023-03-11T04:55:53;92810.25;;;11.35;100.00
3178;BME280;38141;42.666;23.344;2023-03-11T04:58:20;92810.25;;;11.35;100.00
3178;BME280;38141;42.666;23.344;2023-03-11T05:00:48;92817.69;;;11.31;100.00
3178;BME280;38141;42.666;23.344;2023-03-11T05:03:14;92835.34;;;11.23;100.00
3178;BME280;38141;42.666;23.344;2023-03-11T05:05:41;92795.16;;;11.09;100.00
3178;BME280;38141;42.666;23.344;2023-03-11T05:08:08;92829.22;;;11.35;100.00
3178;BME280;38141;42.666;23.344;2023-03-11T05:10:35;92838.09;;;11.48;100.00
3178;BME280;38141;42.666;23.344;2023-03-11T05:13:02;92843.94;;;11.47;100.00
3178;BME280;38141;42.666;23.344;2023-03-11T05:15:29;92849.00;;;11.45;100.00
3178;BME280;38141;42.666;23.344;2023-03-11T05:17:57;92833.75;;;11.38;100.00
3178;BME280;38141;42.666;23.344;2023-03-11T05:20:24;92853.25;;;11.46;100.00
3178;BME280;38141;42.666;23.344;2023-03-11T05:22:51;92814.38;;;11.40;100.00
3178;BME280;38141;42.666;23.344;2023-03-11T05:25:17;92851.94;;;11.63;100.00
3178;BME280;38141;42.666;23.344;2023-03-11T05:27:44;92851.41;;;11.68;100.00
3178;BME280;38141;42.666;23.344;2023-03-11T05:30:11;92866.88;;;11.68;100.00
3178;BME280;38141;42.666;23.344;2023-03-11T05:32:39;92865.16;;;11.61;100.00
3178;BME280;38141;42.666;23.344;2023-03-11T05:35:08;92855.28;;;11.54;100.00
3178;BME280;38141;42.666;23.344;2023-03-11T05:37:35;92863.41;;;11.54;100.00
3178;BME280;38141;42.666;23.344;2023-03-11T05:40:04;92865.69;;;11.69;100.00
3178;BME280;38141;42.666;23.344;2023-03-11T05:42:32;92869.19;;;11.82;100.00
3178;BME280;38141;42.666;23.344;2023-03-11T05:44:59;92872.78;;;11.79;100.00
3178;BME280;38141;42.666;23.344;2023-03-11T05:47:26;92869.16;;;11.69;100.00
3178;BME280;38141;42.666;23.344;2023-03-11T05:49:53;92864.22;;;11.80;100.00
3178;BME280;38141;42.666;23.344;2023-03-11T05:52:21;92871.81;;;11.85;100.00
3178;BME280;38141;42.666;23.344;2023-03-11T05:54:49;92868.63;;;11.62;100.00
3178;BME280;38141;42.666;23.344;2023-03-11T05:57:16;92898.78;;;11.89;100.00
3178;BME280;38141;42.666;23.344;2023-03-11T05:59:43;92897.25;;;12.00;100.00
3178;BME280;38141;42.666;23.344;2023-03-11T06:02:10;92899.09;;;12.16;100.00
3178;BME280;38141;42.666;23.344;2023-03-11T06:04:37;92904.72;;;12.22;100.00
3178;BME280;38141;42.666;23.344;2023-03-11T06:07:04;92912.97;;;12.18;100.00
3178;BME280;38141;42.666;23.344;2023-03-11T06:09:32;92841.31;;;11.69;100.00
3178;BME280;38141;42.666;23.344;2023-03-11T06:12:01;92913.97;;;11.99;100.00
3178;BME280;38141;42.666;23.344;2023-03-11T06:14:28;92911.25;;;11.99;100.00
3178;BME280;38141;42.666;23.344;2023-03-11T06:16:56;92900.50;;;11.83;100.00
3178;BME280;38141;42.666;23.344;2023-03-11T06:19:23;92913.28;;;11.95;100.00
3178;BME280;38141;42.666;23.344;2023-03-11T06:21:50;92905.44;;;11.59;100.00
3178;BME280;38141;42.666;23.344;2023-03-11T06:24:17;92928.69;;;11.98;100.00
3178;BME280;38141;42.666;23.344;2023-03-11T06:26:45;92919.81;;;12.10;100.00
3178;BME280;38141;42.666;23.344;2023-03-11T06:29:16;92921.22;;;12.02;100.00
3178;BME280;38141;42.666;23.344;2023-03-11T06:31:42;92925.00;;;12.04;100.00
3178;BME280;38141;42.666;23.344;2023-03-11T06:34:10;92925.53;;;11.99;100.00
3178;BME280;38141;42.666;23.344;2023-03-11T06:36:37;92923.81;;;11.80;100.00
3178;BME280;38141;42.666;23.344;2023-03-11T06:39:04;92923.06;;;11.92;100.00
3178;BME280;38141;42.666;23.344;2023-03-11T06:41:32;92907.22;;;11.78;100.00
3178;BME280;38141;42.666;23.344;2023-03-11T06:44:00;92915.47;;;12.00;100.00
3178;BME280;38141;42.666;23.344;2023-03-11T06:46:28;92910.72;;;11.79;100.00
3178;BME280;38141;42.666;23.344;2023-03-11T06:48:55;92929.13;;;11.84;100.00
3178;BME280;38141;42.666;23.344;2023-03-11T06:51:22;92913.41;;;11.79;100.00
3178;BME280;38141;42.666;23.344;2023-03-11T06:53:50;92914.41;;;11.85;100.00
3178;BME280;38141;42.666;23.344;2023-03-11T06:56:18;92916.78;;;12.08;100.00
3178;BME280;38141;42.666;23.344;2023-03-11T06:58:45;92928.56;;;12.14;100.00
3178;BME280;38141;42.666;23.344;2023-03-11T07:01:15;92926.63;;;12.15;100.00
3178;BME280;38141;42.666;23.344;2023-03-11T07:03:42;92919.31;;;12.37;100.00
3178;BME280;38141;42.666;23.344;2023-03-11T07:06:11;92939.81;;;12.51;100.00
3178;BME280;38141;42.666;23.344;2023-03-11T07:08:38;92931.66;;;12.51;100.00
3178;BME280;38141;42.666;23.344;2023-03-11T07:11:07;92936.13;;;12.57;100.00
3178;BME280;38141;42.666;23.344;2023-03-11T07:13:35;92937.09;;;12.51;100.00
3178;BME280;38141;42.666;23.344;2023-03-11T07:16:03;92941.41;;;12.61;100.00
3178;BME280;38141;42.666;23.344;2023-03-11T07:18:33;92934.84;;;12.83;100.00
3178;BME280;38141;42.666;23.344;2023-03-11T07:21:00;92928.66;;;12.83;100.00
3178;BME280;38141;42.666;23.344;2023-03-11T07:23:27;92920.22;;;12.68;100.00
3178;BME280;38141;42.666;23.344;2023-03-11T07:25:54;92914.88;;;12.77;100.00
3178;BME280;38141;42.666;23.344;2023-03-11T07:28:21;92910.78;;;13.07;100.00
3178;BME280;38141;42.666;23.344;2023-03-11T07:30:48;92913.56;;;13.16;100.00
3178;BME280;38141;42.666;23.344;2023-03-11T07:33:15;92877.66;;;13.00;100.00
3178;BME280;38141;42.666;23.344;2023-03-11T07:35:44;92902.72;;;13.04;100.00
3178;BME280;38141;42.666;23.344;2023-03-11T07:38:11;92874.53;;;13.01;100.00
3178;BME280;38141;42.666;23.344;2023-03-11T07:40:38;92905.72;;;13.40;100.00
3178;BME280;38141;42.666;23.344;2023-03-11T07:43:04;92883.56;;;14.03;96.85
3178;BME280;38141;42.666;23.344;2023-03-11T07:45:31;92900.38;;;14.29;91.48
3178;BME280;38141;42.666;23.344;2023-03-11T07:47:58;92891.91;;;14.76;79.76
3178;BME280;38141;42.666;23.344;2023-03-11T07:50:25;92876.44;;;15.28;72.66
3178;BME280;38141;42.666;23.344;2023-03-11T07:52:53;92879.88;;;16.39;64.20
3178;BME280;38141;42.666;23.344;2023-03-11T07:55:20;92877.16;;;17.25;59.46
3178;BME280;38141;42.666;23.344;2023-03-11T07:57:47;92874.19;;;19.47;53.84
3178;BME280;38141;42.666;23.344;2023-03-11T08:00:16;92875.34;;;22.74;44.52
3178;BME280;38141;42.666;23.344;2023-03-11T08:02:43;92882.78;;;23.70;42.16
3178;BME280;38141;42.666;23.344;2023-03-11T08:05:10;92869.88;;;23.83;40.74
3178;BME280;38141;42.666;23.344;2023-03-11T08:07:37;92856.84;;;22.13;42.29
3178;BME280;38141;42.666;23.344;2023-03-11T08:10:06;92853.72;;;21.44;44.04
3178;BME280;38141;42.666;23.344;2023-03-11T08:12:33;92848.28;;;21.55;44.72
3178;BME280;38141;42.666;23.344;2023-03-11T08:14:59;92839.69;;;21.31;45.16
3178;BME280;38141;42.666;23.344;2023-03-11T08:17:26;92838.06;;;22.28;43.41
3178;BME280;38141;42.666;23.344;2023-03-11T08:19:53;92826.50;;;22.52;42.26
3178;BME280;38141;42.666;23.344;2023-03-11T08:22:20;92836.56;;;23.24;39.45
3178;BME280;38141;42.666;23.344;2023-03-11T08:24:49;92814.22;;;23.27;38.43
3178;BME280;38141;42.666;23.344;2023-03-11T08:27:18;92825.59;;;24.30;36.89
3178;BME280;38141;42.666;23.344;2023-03-11T08:29:45;92791.75;;;24.48;35.37
3178;BME280;38141;42.666;23.344;2023-03-11T08:32:12;92796.63;;;25.28;34.88
3178;BME280;38141;42.666;23.344;2023-03-11T08:34:41;92812.19;;;24.40;35.63
3178;BME280;38141;42.666;23.344;2023-03-11T08:37:08;92801.66;;;22.74;38.44
3178;BME280;38141;42.666;23.344;2023-03-11T08:39:34;92786.59;;;23.33;37.77
3178;BME280;38141;42.666;23.344;2023-03-11T08:42:01;92772.97;;;25.27;34.40
3178;BME280;38141;42.666;23.344;2023-03-11T08:44:29;92801.16;;;24.88;35.28
3178;BME280;38141;42.666;23.344;2023-03-11T08:46:56;92803.16;;;28.80;29.36
3178;BME280;38141;42.666;23.344;2023-03-11T08:49:23;92805.91;;;31.07;27.89
3178;BME280;38141;42.666;23.344;2023-03-11T08:51:50;92811.66;;;31.80;26.14
3178;BME280;38141;42.666;23.344;2023-03-11T08:54:17;92800.25;;;31.22;26.24
3178;BME280;38141;42.666;23.344;2023-03-11T08:56:43;92800.84;;;33.49;24.93
3178;BME280;38141;42.666;23.344;2023-03-11T08:59:12;92796.06;;;31.94;25.10
3178;BME280;38141;42.666;23.344;2023-03-11T09:01:40;92788.75;;;30.20;27.80
3178;BME280;38141;42.666;23.344;2023-03-11T09:04:08;92782.19;;;28.30;29.06
3178;BME280;38141;42.666;23.344;2023-03-11T09:06:34;92782.41;;;30.12;28.03
3178;BME280;38141;42.666;23.344;2023-03-11T09:09:01;92787.63;;;32.66;25.22
3178;BME280;38141;42.666;23.344;2023-03-11T09:11:28;92775.75;;;30.30;27.29
3178;BME280;38141;42.666;23.344;2023-03-11T09:13:55;92774.03;;;32.30;25.33
3178;BME280;38141;42.666;23.344;2023-03-11T09:16:22;92787.78;;;29.51;27.91
3178;BME280;38141;42.666;23.344;2023-03-11T09:18:51;92762.66;;;26.29;31.40
3178;BME280;38141;42.666;23.344;2023-03-11T09:21:18;92780.63;;;28.99;28.73
3178;BME280;38141;42.666;23.344;2023-03-11T09:23:45;92764.00;;;30.16;27.42
3178;BME280;38141;42.666;23.344;2023-03-11T09:26:12;92794.81;;;33.36;25.12
3178;BME280;38141;42.666;23.344;2023-03-11T09:28:39;92780.38;;;33.39;24.40
3178;BME280;38141;42.666;23.344;2023-03-11T09:31:06;92760.75;;;34.64;23.44
3178;BME280;38141;42.666;23.344;2023-03-11T09:33:35;92780.06;;;33.35;24.70
3178;BME280;38141;42.666;23.344;2023-03-11T09:36:04;92773.38;;;35.76;22.32
3178;BME280;38141;42.666;23.344;2023-03-11T09:38:31;92755.38;;;32.99;24.51
3178;BME280;38141;42.666;23.344;2023-03-11T09:41:01;92776.13;;;34.26;23.92
3178;BME280;38141;42.666;23.344;2023-03-11T09:43:54;92757.19;;;35.09;22.98
3178;BME280;38141;42.666;23.344;2023-03-11T09:46:50;92768.38;;;34.80;23.42
3178;BME280;38141;42.666;23.344;2023-03-11T09:49:26;92737.22;;;30.43;26.40
3178;BME280;38141;42.666;23.344;2023-03-11T09:52:02;92778.25;;;28.25;29.08
3178;BME280;38141;42.666;23.344;2023-03-11T09:54:37;92640.72;;;24.64;32.43
3178;BME280;38141;42.666;23.344;2023-03-11T09:57:21;92687.31;;;24.78;33.16
3178;BME280;38141;42.666;23.344;2023-03-11T09:59:49;92750.53;;;26.84;31.41
3178;BME280;38141;42.666;23.344;2023-03-11T10:02:18;92734.69;;;27.19;30.37
3178;BME280;38141;42.666;23.344;2023-03-11T10:04:51;92693.88;;;24.57;32.31
3178;BME280;38141;42.666;23.344;2023-03-11T10:07:25;92741.34;;;26.63;30.99
3178;BME280;38141;42.666;23.344;2023-03-11T10:09:55;92744.78;;;27.76;30.17
3178;BME280;38141;42.666;23.344;2023-03-11T10:12:33;92751.13;;;26.25;30.44
3178;BME280;38141;42.666;23.344;2023-03-11T10:15:11;92758.25;;;25.56;31.33
3178;BME280;38141;42.666;23.344;2023-03-11T10:17:51;92738.66;;;24.01;32.62
3178;BME280;38141;42.666;23.344;2023-03-11T10:20:24;92774.16;;;24.94;32.65
3178;BME280;38141;42.666;23.344;2023-03-11T10:23:05;92762.59;;;25.14;31.66
3178;BME280;38141;42.666;23.344;2023-03-11T10:25:45;92743.75;;;26.27;30.11
3178;BME280;38141;42.666;23.344;2023-03-11T10:28:16;92756.72;;;25.74;31.35
3178;BME280;38141;42.666;23.344;2023-03-11T10:30:46;92767.41;;;26.15;30.18
3178;BME280;38141;42.666;23.344;2023-03-11T10:33:20;92740.81;;;25.24;30.63
3178;BME280;38141;42.666;23.344;2023-03-11T10:35:52;92740.72;;;24.25;32.87
3178;BME280;38141;42.666;23.344;2023-03-11T10:38:23;92747.50;;;22.77;36.14
3178;BME280;38141;42.666;23.344;2023-03-11T10:40:53;92746.19;;;21.76;37.14
3178;BME280;38141;42.666;23.344;2023-03-11T10:43:25;92736.13;;;21.06;38.16
3178;BME280;38141;42.666;23.344;2023-03-11T10:45:54;92718.50;;;20.53;38.50
3178;BME280;38141;42.666;23.344;2023-03-11T10:48:24;92757.34;;;21.00;38.59
3178;BME280;38141;42.666;23.344;2023-03-11T10:50:55;92754.88;;;19.63;41.56
3178;BME280;38141;42.666;23.344;2023-03-11T10:53:25;92751.72;;;19.19;43.21
3178;BME280;38141;42.666;23.344;2023-03-11T10:55:55;92769.75;;;18.18;44.74
3178;BME280;38141;42.666;23.344;2023-03-11T10:58:24;92772.72;;;18.55;45.12
3178;BME280;38141;42.666;23.344;2023-03-11T11:01:03;92782.81;;;18.09;45.82
3178;BME280;38141;42.666;23.344;2023-03-11T11:03:32;92748.88;;;18.01;45.92
3178;BME280;38141;42.666;23.344;2023-03-11T11:06:01;92764.47;;;18.15;45.02
3178;BME280;38141;42.666;23.344;2023-03-11T11:08:31;92698.91;;;18.46;43.79
3178;BME280;38141;42.666;23.344;2023-03-11T11:10:59;92775.63;;;18.67;43.73
3178;BME280;38141;42.666;23.344;2023-03-11T11:13:28;92722.81;;;18.26;44.72
3178;BME280;38141;42.666;23.344;2023-03-11T11:15:59;92746.88;;;19.08;44.10
3178;BME280;38141;42.666;23.344;2023-03-11T11:18:30;92764.59;;;19.95;42.53
3178;BME280;38141;42.666;23.344;2023-03-11T11:21:01;92749.13;;;19.35;43.23
3178;BME280;38141;42.666;23.344;2023-03-11T11:23:36;92738.91;;;19.62;42.90
3178;BME280;38141;42.666;23.344;2023-03-11T11:26:06;92717.28;;;19.12;44.03
3178;BME280;38141;42.666;23.344;2023-03-11T11:28:39;92655.44;;;18.54;44.84
3178;BME280;38141;42.666;23.344;2023-03-11T11:31:19;92721.44;;;18.56;45.39
3178;BME280;38141;42.666;23.344;2023-03-11T11:33:49;92747.97;;;18.50;46.25
3178;BME280;38141;42.666;23.344;2023-03-11T11:36:17;92715.97;;;17.46;47.10
3178;BME280;38141;42.666;23.344;2023-03-11T11:38:46;92727.75;;;17.66;47.75
3178;BME280;38141;42.666;23.344;2023-03-11T11:41:14;92734.00;;;17.87;47.60
3178;BME280;38141;42.666;23.344;2023-03-11T11:43:46;92697.59;;;17.46;47.59
3178;BME280;38141;42.666;23.344;2023-03-11T11:46:24;92722.94;;;17.96;46.90
3178;BME280;38141;42.666;23.344;2023-03-11T11:49:01;92712.81;;;18.02;46.35
3178;BME280;38141;42.666;23.344;2023-03-11T11:51:33;92680.09;;;18.13;45.95
3178;BME280;38141;42.666;23.344;2023-03-11T11:54:12;92697.78;;;18.79;45.57
3178;BME280;38141;42.666;23.344;2023-03-11T11:56:42;92696.06;;;19.07;44.29
3178;BME280;38141;42.666;23.344;2023-03-11T11:59:15;92694.31;;;19.41;43.61
3178;BME280;38141;42.666;23.344;2023-03-11T12:01:48;92668.78;;;19.24;44.27
3178;BME280;38141;42.666;23.344;2023-03-11T12:04:37;92691.81;;;19.37;44.25
3178;BME280;38141;42.666;23.344;2023-03-11T12:07:21;92684.41;;;19.12;44.28
3178;BME280;38141;42.666;23.344;2023-03-11T12:09:56;92681.78;;;19.60;42.87
3178;BME280;38141;42.666;23.344;2023-03-11T12:12:28;92673.75;;;19.93;42.86
3178;BME280;38141;42.666;23.344;2023-03-11T12:15:03;92667.22;;;19.17;41.08
3178;BME280;38141;42.666;23.344;2023-03-11T12:17:34;92665.56;;;19.25;39.94
3178;BME280;38141;42.666;23.344;2023-03-11T12:20:05;92661.31;;;19.98;39.81
3178;BME280;38141;42.666;23.344;2023-03-11T12:22:54;92674.44;;;20.36;38.82
3178;BME280;38141;42.666;23.344;2023-03-11T12:25:31;92655.75;;;20.46;38.68
3178;BME280;38141;42.666;23.344;2023-03-11T12:28:10;92668.63;;;20.94;37.71
3178;BME280;38141;42.666;23.344;2023-03-11T12:30:41;92664.75;;;19.50;40.01
3178;BME280;38141;42.666;23.344;2023-03-11T12:33:15;92648.69;;;19.75;39.45
3178;BME280;38141;42.666;23.344;2023-03-11T12:35:47;92681.69;;;20.34;39.54
3178;BME280;38141;42.666;23.344;2023-03-11T12:38:16;92672.09;;;20.18;39.75
3178;BME280;38141;42.666;23.344;2023-03-11T12:40:56;92657.50;;;19.84;40.52
3178;BME280;38141;42.666;23.344;2023-03-11T12:49:36;92691.13;;;20.27;40.37
3178;BME280;38141;42.666;23.344;2023-03-11T12:52:19;92685.53;;;20.05;40.70
3178;BME280;38141;42.666;23.344;2023-03-11T12:54:47;92626.41;;;19.56;41.15
3178;BME280;38141;42.666;23.344;2023-03-11T12:57:36;92701.03;;;20.14;40.88
3178;BME280;38141;42.666;23.344;2023-03-11T13:00:20;92681.88;;;19.71;41.10
3178;BME280;38141;42.666;23.344;2023-03-11T13:03:13;92677.88;;;19.41;41.71
3178;BME280;38141;42.666;23.344;2023-03-11T13:05:50;92705.84;;;19.45;41.75
3178;BME280;38141;42.666;23.344;2023-03-11T13:08:20;92726.03;;;18.90;42.84
3178;BME280;38141;42.666;23.344;2023-03-11T13:10:49;92692.09;;;18.16;44.97
3178;BME280;38141;42.666;23.344;2023-03-11T13:13:39;92726.00;;;18.44;44.32